Time;durP1;ratioP1;P1;durP2;ratioP2;P2;SDS_P1;SDS_P2;PMS_P1;PMS_P2;Temp;Humidity;BMP_temperature;BMP_pressure;BME280_temperature;BME280_humidity;BME280_pressure;Samples;Min_cycle;Max_cycle;Signal;HPM_P1;HPM_P2
2021/04/01 00:00:11;;;;;;;1999.90;999.90;;;17.00;91.50;;;;;;5054827;28;20169;-42
2021/04/01 00:02:38;;;;;;;1999.90;999.90;;;16.90;91.90;;;;;;5054803;28;20192;-38
2021/04/01 00:05:08;;;;;;;1999.90;999.90;;;16.70;92.60;;;;;;5054742;28;20252;-38
2021/04/01 00:07:35;;;;;;;1999.90;999.90;;;16.60;92.80;;;;;;5054930;28;20255;-36
2021/04/01 00:10:05;;;;;;;1999.90;999.90;;;16.60;93.00;;;;;;5054643;28;20173;-38
2021/04/01 00:12:32;;;;;;;1999.90;999.90;;;16.50;93.20;;;;;;5054617;28;20631;-38
2021/04/01 00:14:59;;;;;;;1999.90;999.90;;;16.50;93.30;;;;;;5054751;28;20650;-39
2021/04/01 00:17:27;;;;;;;1999.90;999.90;;;16.50;93.40;;;;;;5054495;28;20169;-38
2021/04/01 00:19:53;;;;;;;1999.90;999.90;;;16.50;93.40;;;;;;5054519;28;20263;-41
2021/04/01 00:22:20;;;;;;;1999.90;999.90;;;16.40;93.60;;;;;;5054272;28;20227;-41
2021/04/01 00:24:47;;;;;;;1999.90;999.90;;;16.30;93.70;;;;;;5054396;28;20179;-38
2021/04/01 00:27:14;;;;;;;1999.90;999.90;;;16.30;93.90;;;;;;5054356;28;20176;-36
2021/04/01 00:29:41;;;;;;;1999.90;999.90;;;16.30;94.10;;;;;;5054215;28;20213;-39
2021/04/01 00:32:08;;;;;;;1999.90;999.90;;;16.30;94.30;;;;;;5054214;28;20168;-37
2021/04/01 00:34:35;;;;;;;1999.90;999.90;;;16.40;94.30;;;;;;5054177;28;20177;-39
2021/04/01 00:37:02;;;;;;;1999.90;999.90;;;16.40;94.40;;;;;;5054261;28;20173;-38
2021/04/01 00:39:28;;;;;;;1999.90;999.90;;;16.40;94.60;;;;;;5054189;28;20165;-36
2021/04/01 00:41:55;;;;;;;1999.90;999.90;;;16.40;94.50;;;;;;5054026;28;20169;-40
2021/04/01 00:44:22;;;;;;;1999.90;999.90;;;16.40;94.60;;;;;;5053919;28;20193;-40
2021/04/01 00:46:49;;;;;;;1999.90;999.90;;;16.40;94.50;;;;;;5053917;28;20173;-36
2021/04/01 00:49:16;;;;;;;1999.90;999.90;;;16.50;94.60;;;;;;5053854;28;20208;-38
2021/04/01 00:51:43;;;;;;;1999.90;999.90;;;16.50;94.40;;;;;;5053830;28;20585;-41
2021/04/01 00:54:10;;;;;;;1999.90;999.90;;;16.60;94.00;;;;;;5053808;28;20522;-39
2021/04/01 00:56:37;;;;;;;1999.90;999.90;;;16.60;93.90;;;;;;5053508;28;20161;-36
2021/04/01 00:59:06;;;;;;;1999.90;999.90;;;16.60;93.90;;;;;;5053861;28;20165;-40
2021/04/01 01:02:07;;;;;;;1999.90;999.90;;;16.70;93.70;;;;;;5053791;28;20209;-36
2021/04/01 01:04:27;;;;;;;1999.90;999.90;;;16.70;93.60;;;;;;5051521;28;20765;-37
2021/04/01 01:06:54;;;;;;;1999.90;999.90;;;16.70;93.50;;;;;;5052306;28;20177;-40
2021/04/01 01:09:21;;;;;;;1999.90;999.90;;;16.70;93.30;;;;;;5053450;28;20206;-36
2021/04/01 01:11:48;;;;;;;1999.90;999.90;;;16.80;93.30;;;;;;5053448;28;20196;-42
2021/04/01 01:14:14;;;;;;;1999.90;999.90;;;16.90;93.10;;;;;;5053404;28;20175;-38
2021/04/01 01:16:42;;;;;;;1999.90;999.90;;;16.80;93.00;;;;;;5053486;28;20196;-38
2021/04/01 01:19:11;;;;;;;1999.90;999.90;;;16.90;92.90;;;;;;5053377;28;20169;-40
2021/04/01 01:21:38;;;;;;;1999.90;999.90;;;16.80;92.80;;;;;;5053362;28;20219;-37
2021/04/01 01:24:20;;;;;;;1999.90;999.90;;;16.80;92.80;;;;;;5053412;28;20173;-38
2021/04/01 01:26:47;;;;;;;1999.90;999.90;;;16.80;92.80;;;;;;5053329;28;20494;-38
2021/04/01 01:29:14;;;;;;;1999.90;999.90;;;16.90;92.80;;;;;;5053142;28;20288;-37
2021/04/01 01:31:48;;;;;;;1999.90;999.90;;;16.80;93.30;;;;;;5053258;28;20551;-39
2021/04/01 01:34:16;;;;;;;1999.90;999.90;;;16.80;93.60;;;;;;5052706;28;20240;-37
2021/04/01 01:36:43;;;;;;;1999.90;999.90;;;16.80;93.90;;;;;;5053066;28;20191;-39
2021/04/01 01:39:09;;;;;;;1999.90;999.90;;;16.70;94.10;;;;;;5053037;28;20219;-39
2021/04/01 01:41:36;;;;;;;1999.90;999.90;;;16.70;94.30;;;;;;5053114;28;20172;-36
2021/04/01 01:44:03;;;;;;;1999.90;999.90;;;16.70;94.30;;;;;;5052990;28;20199;-37
2021/04/01 01:46:31;;;;;;;1999.90;999.90;;;16.60;94.50;;;;;;5052990;28;20173;-36
2021/04/01 01:48:58;;;;;;;1999.90;999.90;;;16.70;94.50;;;;;;5052828;28;20285;-42
2021/04/01 01:51:27;;;;;;;1999.90;999.90;;;16.70;94.40;;;;;;5052953;28;20169;-36
2021/04/01 01:53:54;;;;;;;1999.90;999.90;;;16.70;94.40;;;;;;5052826;28;20169;-38
2021/04/01 01:56:26;;;;;;;1999.90;999.90;;;16.80;94.50;;;;;;5052873;28;20248;-37
2021/04/01 01:58:57;;;;;;;1999.90;999.90;;;16.80;94.60;;;;;;5052676;28;20217;-38
2021/04/01 02:01:26;;;;;;;1999.90;999.90;;;16.90;94.50;;;;;;5052762;28;20283;-40
2021/04/01 02:03:53;;;;;;;1999.90;999.90;;;16.80;94.20;;;;;;5052795;28;20296;-39
2021/04/01 02:06:21;;;;;;;1999.90;999.90;;;16.90;93.60;;;;;;5052755;28;20212;-40
2021/04/01 02:08:48;;;;;;;1999.90;999.90;;;16.90;93.30;;;;;;5052642;28;20216;-37
2021/04/01 02:11:19;;;;;;;1999.90;999.90;;;16.90;93.20;;;;;;5052633;28;20583;-38
2021/04/01 02:13:46;;;;;;;1999.90;999.90;;;16.90;93.00;;;;;;5052884;28;20551;-41
2021/04/01 02:16:13;;;;;;;1999.90;999.90;;;16.90;93.30;;;;;;5052626;28;20161;-41
2021/04/01 02:18:40;;;;;;;1999.90;999.90;;;16.90;93.30;;;;;;5052779;28;20169;-36
2021/04/01 02:21:11;;;;;;;1999.90;999.90;;;16.80;93.30;;;;;;5052815;28;20248;-41
2021/04/01 02:23:38;;;;;;;1999.90;999.90;;;16.80;93.40;;;;;;5052767;28;20165;-38
2021/04/01 02:26:07;;;;;;;1999.90;999.90;;;16.80;93.70;;;;;;5052550;28;20200;-36
2021/04/01 02:28:36;;;;;;;1999.90;999.90;;;16.80;93.90;;;;;;5052423;28;20193;-41
2021/04/01 02:31:08;;;;;;;1999.90;999.90;;;16.80;93.90;;;;;;5052505;28;20675;-38
2021/04/01 02:33:37;;;;;;;1999.90;999.90;;;16.80;93.90;;;;;;5052489;28;20578;-40
2021/04/01 02:36:06;;;;;;;1999.90;999.90;;;16.80;94.10;;;;;;5052499;28;20187;-37
2021/04/01 02:38:33;;;;;;;1999.90;999.90;;;16.70;94.30;;;;;;5052684;28;20165;-37
2021/04/01 02:41:00;;;;;;;1999.90;999.90;;;16.70;94.30;;;;;;5052435;28;20176;-37
2021/04/01 02:43:33;;;;;;;1999.90;999.90;;;16.70;94.30;;;;;;5052409;28;20169;-40
2021/04/01 02:46:04;;;;;;;1999.90;999.90;;;16.70;94.40;;;;;;5052602;28;20666;-37
2021/04/01 02:48:32;;;;;;;1999.90;999.90;;;16.60;94.50;;;;;;5056148;28;20197;-38
2021/04/01 02:50:59;;;;;;;1999.90;999.90;;;16.70;94.50;;;;;;5056104;28;20207;-37
2021/04/01 02:53:26;;;;;;;1999.90;999.90;;;16.60;94.50;;;;;;5056138;28;20165;-38
2021/04/01 02:55:53;;;;;;;1999.90;999.90;;;16.60;94.60;;;;;;5056025;28;20557;-38
2021/04/01 02:58:19;;;;;;;1999.90;999.90;;;16.60;94.70;;;;;;5055815;28;20243;-41
2021/04/01 03:00:46;;;;;;;1999.90;999.90;;;16.50;94.80;;;;;;5056049;28;20234;-37
2021/04/01 03:03:18;;;;;;;1999.90;999.90;;;16.50;94.80;;;;;;5055955;28;20218;-41
2021/04/01 03:05:45;;;;;;;1999.90;999.90;;;16.50;94.90;;;;;;5056065;28;20158;-40
2021/04/01 03:08:12;;;;;;;1999.90;999.90;;;16.40;95.10;;;;;;5055802;28;20192;-40
2021/04/01 03:10:39;;;;;;;1999.90;999.90;;;16.40;95.20;;;;;;5055832;28;20169;-40
2021/04/01 03:13:06;;;;;;;1999.90;999.90;;;16.30;95.40;;;;;;5055754;28;20170;-38
2021/04/01 03:15:33;;;;;;;1999.90;999.90;;;16.30;95.50;;;;;;5055696;28;20168;-37
2021/04/01 03:18:00;;;;;;;1999.90;999.90;;;16.30;95.50;;;;;;5055686;28;20169;-39
2021/04/01 03:20:27;;;;;;;1999.90;999.90;;;16.20;95.50;;;;;;5055556;28;20207;-37
2021/04/01 03:22:53;;;;;;;1999.90;999.90;;;16.20;95.80;;;;;;5055518;28;20526;-39
2021/04/01 03:25:20;;;;;;;1999.90;999.90;;;16.20;95.60;;;;;;5055440;28;20240;-37
2021/04/01 03:27:47;;;;;;;1999.90;999.90;;;16.20;95.50;;;;;;5055400;28;20668;-37
2021/04/01 03:30:15;;;;;;;1999.90;999.90;;;16.30;95.40;;;;;;5055506;28;20169;-36
2021/04/01 03:32:44;;;;;;;1999.90;999.90;;;16.30;95.40;;;;;;5055424;28;20498;-40
2021/04/01 03:35:13;;;;;;;1999.90;999.90;;;16.20;95.50;;;;;;5055374;28;20165;-41
2021/04/01 03:37:42;;;;;;;1999.90;999.90;;;16.20;95.70;;;;;;5055149;28;20165;-41
2021/04/01 03:40:09;;;;;;;1999.90;999.90;;;16.20;95.30;;;;;;5055221;28;20181;-39
2021/04/01 03:42:38;;;;;;;1999.90;999.90;;;16.20;95.30;;;;;;5055083;28;20173;-41
2021/04/01 03:45:07;;;;;;;1999.90;999.90;;;16.10;95.20;;;;;;5055138;28;20651;-38
2021/04/01 03:47:34;;;;;;;1999.90;999.90;;;16.10;95.10;;;;;;5054958;28;20161;-41
2021/04/01 03:50:01;;;;;;;1999.90;999.90;;;16.10;95.10;;;;;;5055055;28;20161;-37
2021/04/01 03:52:28;;;;;;;1999.90;999.90;;;16.00;95.20;;;;;;5053742;28;20169;-41
2021/04/01 03:55:01;;;;;;;1999.90;999.90;;;16.00;95.30;;;;;;5054904;28;20623;-39
2021/04/01 03:57:28;;;;;;;1999.90;999.90;;;15.90;95.60;;;;;;5054253;28;20695;-37
2021/04/01 04:10:39;;;;;;;1999.90;999.90;;;15.60;96.70;;;;;;5054757;28;20172;-38
2021/04/01 04:13:13;;;;;;;1999.90;999.90;;;15.50;96.90;;;;;;5054505;28;20173;-39
2021/04/01 04:15:40;;;;;;;1999.90;999.90;;;15.50;97.00;;;;;;5054550;28;20165;-38
2021/04/01 04:18:06;;;;;;;1999.90;999.90;;;15.50;97.20;;;;;;5054428;28;20620;-39
2021/04/01 04:20:34;;;;;;;1999.90;999.90;;;15.40;97.20;;;;;;5053146;28;20690;-37
2021/04/01 04:23:01;;;;;;;1999.90;999.90;;;15.30;97.40;;;;;;5054377;28;20178;-40
2021/04/01 04:25:28;;;;;;;1999.90;999.90;;;15.30;97.40;;;;;;5054245;28;20173;-38
2021/04/01 04:30:26;;;;;;;1999.90;999.90;;;15.30;97.50;;;;;;5054307;28;20651;-35
2021/04/01 04:32:54;;;;;;;1999.90;999.90;;;15.20;97.80;;;;;;5054263;28;20236;-41
2021/04/01 04:35:22;;;;;;;1999.90;999.90;;;15.20;97.80;;;;;;5054162;28;20201;-36
2021/04/01 04:37:49;;;;;;;1999.90;999.90;;;15.20;97.90;;;;;;5054188;28;20654;-37
2021/04/01 04:40:16;;;;;;;1999.90;999.90;;;15.10;98.00;;;;;;5054069;28;20204;-40
2021/04/01 04:42:43;;;;;;;1999.90;999.90;;;15.10;98.20;;;;;;5053785;28;20165;-37
2021/04/01 04:45:10;;;;;;;1999.90;999.90;;;15.10;98.30;;;;;;5053956;28;20617;-39
2021/04/01 04:47:37;;;;;;;1999.90;999.90;;;15.10;98.10;;;;;;5053706;28;20200;-39
2021/04/01 04:50:06;;;;;;;1999.90;999.90;;;15.10;98.00;;;;;;5053929;28;20628;-39
2021/04/01 04:52:35;;;;;;;1999.90;999.90;;;15.00;98.40;;;;;;5053788;28;20163;-39
2021/04/01 04:55:04;;;;;;;1999.90;999.90;;;14.90;98.50;;;;;;5053967;28;20534;-37
2021/04/01 05:05:29;;;;;;;1999.90;999.90;;;14.80;98.40;;;;;;5053861;28;20526;-39
2021/04/01 05:07:56;;;;;;;1999.90;999.90;;;14.80;98.70;;;;;;5053452;28;20196;-37
2021/04/01 05:10:23;;;;;;;1999.90;999.90;;;14.70;98.50;;;;;;5052850;28;20264;-39
2021/04/01 05:13:09;;;;;;;1999.90;999.90;;;14.80;98.70;;;;;;5053501;28;20169;-39
2021/04/01 05:15:40;;;;;;;1999.90;999.90;;;14.80;98.80;;;;;;5053382;28;20253;-39
2021/04/01 05:18:25;;;;;;;1999.90;999.90;;;14.70;98.80;;;;;;5053274;28;20165;-39
2021/04/01 05:20:53;;;;;;;1999.90;999.90;;;14.80;98.80;;;;;;5053280;28;20218;-38
2021/04/01 05:25:52;;;;;;;1999.90;999.90;;;14.80;98.70;;;;;;5053171;28;20232;-39
2021/04/01 05:28:30;;;;;;;1999.90;999.90;;;14.80;98.70;;;;;;5053194;28;20230;-40
2021/04/01 05:30:59;;;;;;;1999.90;999.90;;;14.80;98.70;;;;;;5052819;28;20165;-37
2021/04/01 05:33:32;;;;;;;1999.90;999.90;;;14.80;98.70;;;;;;5052777;28;20169;-38
2021/04/01 05:36:01;;;;;;;1999.90;999.90;;;14.90;98.20;;;;;;5052912;28;20278;-36
2021/04/01 05:38:28;;;;;;;1999.90;999.90;;;14.90;98.20;;;;;;5052750;28;20169;-38
2021/04/01 05:40:55;;;;;;;1999.90;999.90;;;15.00;98.30;;;;;;5052881;28;20161;-41
2021/04/01 05:43:25;;;;;;;1999.90;999.90;;;15.10;98.30;;;;;;5052606;28;20266;-38
2021/04/01 05:46:08;;;;;;;1999.90;999.90;;;15.20;98.10;;;;;;5052298;28;20652;-36
2021/04/01 05:48:43;;;;;;;1999.90;999.90;;;15.20;97.80;;;;;;5052359;28;20197;-43
2021/04/01 06:03:15;;;;;;;1999.90;999.90;;;16.30;94.60;;;;;;5052380;28;20191;-41
2021/04/01 06:05:47;;;;;;;1999.90;999.90;;;16.70;94.00;;;;;;5048367;28;20165;-42
2021/04/01 06:08:24;;;;;;;1999.90;999.90;;;16.90;93.30;;;;;;5051752;28;20197;-40
2021/04/01 06:10:51;;;;;;;1999.90;999.90;;;17.10;92.20;;;;;;5052281;28;20191;-46
2021/04/01 06:13:22;;;;;;;1999.90;999.90;;;17.30;92.40;;;;;;5050210;28;20216;-43
2021/04/01 06:15:51;;;;;;;1999.90;999.90;;;17.40;91.70;;;;;;5032507;28;20158;-42
2021/04/01 06:18:22;;;;;;;1999.90;999.90;;;17.60;91.50;;;;;;5047131;28;20214;-43
2021/04/01 06:20:52;;;;;;;1999.90;999.90;;;17.80;90.80;;;;;;5053275;28;20173;-51
2021/04/01 06:23:31;;;;;;;1999.90;999.90;;;18.00;90.60;;;;;;5056443;28;20173;-41
2021/04/01 06:25:59;;;;;;;1999.90;999.90;;;18.10;90.10;;;;;;5056255;28;20169;-40
2021/04/01 06:28:42;;;;;;;1999.90;999.90;;;18.30;90.00;;;;;;5055339;28;20246;-42
2021/04/01 06:31:11;;;;;;;1999.90;999.90;;;18.40;89.50;;;;;;5053783;28;20535;-44
2021/04/01 06:33:47;;;;;;;1999.90;999.90;;;18.60;88.50;;;;;;5055379;28;20165;-46
2021/04/01 06:36:22;;;;;;;1999.90;999.90;;;18.60;87.00;;;;;;5054284;28;20185;-48
2021/04/01 06:38:50;;;;;;;1999.90;999.90;;;18.60;86.60;;;;;;5055038;28;20167;-45
2021/04/01 06:41:28;;;;;;;1999.90;999.90;;;18.60;86.30;;;;;;5054165;28;20177;-46
2021/04/01 06:44:03;;;;;;;1999.90;999.90;;;18.60;87.00;;;;;;5039694;28;20172;-44
2021/04/01 06:46:41;;;;;;;1999.90;999.90;;;18.60;86.90;;;;;;5035046;28;20177;-44
2021/04/01 06:51:56;;;;;;;1999.90;999.90;;;18.90;84.70;;;;;;5051620;28;20169;-45
2021/04/01 06:54:36;;;;;;;1999.90;999.90;;;19.00;83.80;;;;;;5054269;28;20180;-43
2021/04/01 06:57:33;;;;;;;1999.90;999.90;;;19.10;82.90;;;;;;5053962;28;20217;-44
2021/04/01 07:00:32;;;;;;;1999.90;999.90;;;19.20;81.70;;;;;;5054969;28;20154;-44
2021/04/01 07:03:17;;;;;;;1999.90;999.90;;;19.40;80.60;;;;;;5054748;28;20509;-44
2021/04/01 07:05:52;;;;;;;1999.90;999.90;;;19.50;80.00;;;;;;5054227;28;20173;-43
2021/04/01 07:08:31;;;;;;;1999.90;999.90;;;19.70;78.30;;;;;;5054109;28;20530;-44
2021/04/01 07:11:04;;;;;;;1999.90;999.90;;;19.70;77.70;;;;;;5051766;28;20196;-43
2021/04/01 07:13:43;;;;;;;1999.90;999.90;;;19.90;77.30;;;;;;5054182;28;20164;-46
2021/04/01 07:16:40;;;;;;;1999.90;999.90;;;20.00;76.70;;;;;;5054541;28;20187;-46
2021/04/01 07:47:00;;;;;;;1999.90;999.90;;;21.50;68.50;;;;;;5051459;28;20226;-47
2021/04/01 07:49:29;;;;;;;1999.90;999.90;;;21.70;67.70;;;;;;5053715;28;20208;-46
2021/04/01 07:52:02;;;;;;;1999.90;999.90;;;21.90;66.60;;;;;;5053732;28;20544;-50
2021/04/01 07:54:41;;;;;;;1999.90;999.90;;;22.30;64.70;;;;;;5053082;28;20612;-49
2021/04/01 07:57:39;;;;;;;1999.90;999.90;;;22.80;62.70;;;;;;5053363;28;20358;-45
2021/04/01 08:00:27;;;;;;;1999.90;999.90;;;23.40;60.30;;;;;;5051929;28;20169;-45
2021/04/01 08:03:22;;;;;;;1999.90;999.90;;;23.90;59.30;;;;;;5053244;28;20149;-45
2021/04/01 08:05:50;;;;;;;1999.90;999.90;;;24.30;57.40;;;;;;5053382;28;20670;-46
2021/04/01 08:08:20;;;;;;;1999.90;999.90;;;25.00;56.00;;;;;;5053134;28;20304;-46
2021/04/01 08:10:49;;;;;;;1999.90;999.90;;;25.00;54.60;;;;;;5052655;28;20201;-44
2021/04/01 08:13:30;;;;;;;1999.90;999.90;;;25.00;53.60;;;;;;5053062;28;20264;-44
2021/04/01 08:16:03;;;;;;;1999.90;999.90;;;25.10;52.70;;;;;;5050561;28;20245;-46
2021/04/01 08:18:40;;;;;;;1999.90;999.90;;;25.20;52.80;;;;;;5049164;28;20515;-46
2021/04/01 08:21:12;;;;;;;1999.90;999.90;;;25.80;52.60;;;;;;5052250;28;20673;-42
2021/04/01 08:23:46;;;;;;;1999.90;999.90;;;26.10;51.60;;;;;;5052424;28;20219;-45
2021/04/01 08:26:53;;;;;;;1999.90;999.90;;;26.70;49.40;;;;;;5052612;28;20165;-46
2021/04/01 08:29:23;;;;;;;1999.90;999.90;;;27.10;48.90;;;;;;5049582;28;20212;-43
2021/04/01 08:36:52;;;;;;;1999.90;999.90;;;27.60;47.10;;;;;;5052071;28;20165;-45
2021/04/01 08:39:22;;;;;;;1999.90;999.90;;;27.70;45.70;;;;;;5052787;28;20173;-46
2021/04/01 08:42:06;;;;;;;1999.90;999.90;;;28.00;45.20;;;;;;5051857;28;20313;-47
2021/04/01 08:44:54;;;;;;;1999.90;999.90;;;28.60;45.00;;;;;;5051486;28;20555;-46
2021/04/01 08:47:54;;;;;;;1999.90;999.90;;;28.50;43.90;;;;;;5052539;28;20165;-46
2021/04/01 08:50:33;;;;;;;1999.90;999.90;;;28.80;43.00;;;;;;5050200;28;20205;-42
2021/04/01 08:53:15;;;;;;;1999.90;999.90;;;28.70;42.80;;;;;;5051537;28;20623;-45
2021/04/01 08:55:56;;;;;;;1999.90;999.90;;;29.00;42.10;;;;;;5051982;28;20647;-46
2021/04/01 08:58:23;;;;;;;1999.90;999.90;;;29.30;41.30;;;;;;5050225;28;20304;-54
2021/04/01 09:01:06;;;;;;;1999.90;999.90;;;29.20;40.60;;;;;;5051787;28;20173;-45
2021/04/01 09:03:35;;;;;;;1999.90;999.90;;;28.80;41.00;;;;;;5051359;28;20168;-45
2021/04/01 09:06:02;;;;;;;1999.90;999.90;;;27.70;41.90;;;;;;5051036;28;20173;-43
2021/04/01 09:08:34;;;;;;;1999.90;999.90;;;27.10;43.60;;;;;;5050842;28;20224;-43
2021/04/01 09:11:02;;;;;;;1999.90;999.90;;;26.80;44.50;;;;;;5051557;28;20248;-45
2021/04/01 09:13:33;;;;;;;1999.90;999.90;;;26.70;45.00;;;;;;5052152;28;20173;-45
2021/04/01 09:16:11;;;;;;;1999.90;999.90;;;26.80;45.50;;;;;;5049747;28;20287;-46
2021/04/01 09:18:44;;;;;;;1999.90;999.90;;;27.40;44.10;;;;;;5050707;28;20169;-45
2021/04/01 09:21:11;;;;;;;1999.90;999.90;;;27.70;43.20;;;;;;5051994;28;20150;-46
2021/04/01 09:23:38;;;;;;;1999.90;999.90;;;27.20;43.40;;;;;;5051196;28;20659;-44
2021/04/01 09:26:07;;;;;;;1999.90;999.90;;;26.70;44.00;;;;;;5050940;28;20173;-39
2021/04/01 09:28:41;;;;;;;1999.90;999.90;;;26.40;44.70;;;;;;5051546;28;20290;-43
2021/04/01 09:31:09;;;;;;;1999.90;999.90;;;26.50;45.00;;;;;;5051243;28;20535;-46
2021/04/01 09:33:38;;;;;;;1999.90;999.90;;;26.60;45.20;;;;;;5052297;28;20192;-56
2021/04/01 09:36:20;;;;;;;1999.90;999.90;;;26.90;44.80;;;;;;5051414;28;20165;-51
2021/04/01 09:39:03;;;;;;;1999.90;999.90;;;27.00;43.60;;;;;;5050791;28;20216;-58
2021/04/01 09:41:33;;;;;;;1999.90;999.90;;;26.40;44.60;;;;;;5051586;28;20291;-54
2021/04/01 09:44:12;;;;;;;1999.90;999.90;;;25.80;46.10;;;;;;5051466;28;20170;-55
2021/04/01 09:47:05;;;;;;;1999.90;999.90;;;26.10;45.80;;;;;;5050500;28;20169;-48
2021/04/01 09:49:41;;;;;;;1999.90;999.90;;;26.10;45.40;;;;;;5031891;28;20190;-43
2021/04/01 09:52:12;;;;;;;1999.90;999.90;;;26.30;45.10;;;;;;5031527;28;20185;-48
2021/04/01 09:54:53;;;;;;;1999.90;999.90;;;26.10;45.50;;;;;;5034064;28;20170;-45
2021/04/01 09:57:21;;;;;;;1999.90;999.90;;;26.40;45.20;;;;;;5051567;28;20224;-47
2021/04/01 09:59:51;;;;;;;1999.90;999.90;;;26.70;44.10;;;;;;5051139;28;20173;-46
2021/04/01 10:02:34;;;;;;;1999.90;999.90;;;26.80;44.10;;;;;;5051652;28;20632;-46
2021/04/01 10:05:05;;;;;;;1999.90;999.90;;;27.00;44.10;;;;;;5051000;28;20192;-58
2021/04/01 10:07:34;;;;;;;1999.90;999.90;;;27.40;42.60;;;;;;5051057;28;20674;-50
2021/04/01 10:10:05;;;;;;;1999.90;999.90;;;27.10;42.90;;;;;;5051108;28;20331;-47
2021/04/01 10:12:38;;;;;;;1999.90;999.90;;;27.00;43.60;;;;;;5050517;28;20659;-49
2021/04/01 10:15:10;;;;;;;1999.90;999.90;;;26.80;43.40;;;;;;5050536;28;20612;-56
2021/04/01 10:17:39;;;;;;;1999.90;999.90;;;26.70;43.80;;;;;;5051887;28;20161;-46
2021/04/01 10:20:09;;;;;;;1999.90;999.90;;;26.80;43.90;;;;;;5050782;28;20177;-50
2021/04/01 10:22:39;;;;;;;1999.90;999.90;;;27.10;43.00;;;;;;5050768;28;20201;-46
2021/04/01 10:25:13;;;;;;;1999.90;999.90;;;26.90;43.30;;;;;;5051717;28;20521;-41
2021/04/01 10:28:05;;;;;;;1999.90;999.90;;;26.80;43.20;;;;;;5050450;28;20240;-48
2021/04/01 10:30:35;;;;;;;1999.90;999.90;;;26.60;44.10;;;;;;5050342;28;20185;-44
2021/04/01 10:33:11;;;;;;;1999.90;999.90;;;26.40;44.30;;;;;;5048581;28;20243;-56
2021/04/01 10:35:41;;;;;;;1999.90;999.90;;;26.30;44.60;;;;;;5050483;28;20517;-44
2021/04/01 10:38:10;;;;;;;1999.90;999.90;;;26.60;44.40;;;;;;5051167;28;20169;-45
2021/04/01 10:40:37;;;;;;;1999.90;999.90;;;26.80;43.60;;;;;;5050219;28;20181;-43
2021/04/01 10:43:09;;;;;;;1999.90;999.90;;;27.10;43.60;;;;;;5050570;28;20169;-43
2021/04/01 10:45:43;;;;;;;1999.90;999.90;;;27.30;42.80;;;;;;5050707;28;20620;-42
2021/04/01 10:48:23;;;;;;;1999.90;999.90;;;27.40;43.10;;;;;;5047211;28;20200;-45
2021/04/01 10:50:57;;;;;;;1999.90;999.90;;;27.30;42.40;;;;;;5050870;28;20166;-47
2021/04/01 10:53:25;;;;;;;1999.90;999.90;;;27.00;43.20;;;;;;5051058;28;20169;-43
2021/04/01 10:56:00;;;;;;;1999.90;999.90;;;27.20;43.70;;;;;;5048809;28;20181;-43
2021/04/01 10:58:29;;;;;;;1999.90;999.90;;;27.30;43.10;;;;;;5051057;28;20282;-36
2021/04/01 11:01:00;;;;;;;1999.90;999.90;;;27.00;43.00;;;;;;5050714;28;20173;-55
2021/04/01 11:03:37;;;;;;;1999.90;999.90;;;27.10;43.70;;;;;;5051607;28;20165;-49
2021/04/01 11:06:06;;;;;;;1999.90;999.90;;;27.60;42.70;;;;;;5051586;28;20211;-45
2021/04/01 11:08:44;;;;;;;1999.90;999.90;;;27.80;42.10;;;;;;5054007;28;20201;-41
2021/04/01 11:11:12;;;;;;;1999.90;999.90;;;27.80;41.70;;;;;;5055153;28;20569;-48
2021/04/01 11:13:41;;;;;;;1999.90;999.90;;;27.70;41.70;;;;;;5054601;28;20227;-43
2021/04/01 11:16:10;;;;;;;1999.90;999.90;;;27.70;42.00;;;;;;5053778;28;20169;-40
2021/04/01 11:18:42;;;;;;;1999.90;999.90;;;28.00;41.70;;;;;;5053723;28;20199;-42
2021/04/01 11:21:13;;;;;;;1999.90;999.90;;;28.20;41.20;;;;;;5053724;28;20149;-38
2021/04/01 11:23:40;;;;;;;1999.90;999.90;;;28.50;40.90;;;;;;5053697;28;20176;-37
2021/04/01 11:26:07;;;;;;;1999.90;999.90;;;28.60;41.20;;;;;;5053581;28;20173;-39
2021/04/01 11:28:37;;;;;;;1999.90;999.90;;;28.30;41.40;;;;;;5053489;28;20201;-39
2021/04/01 11:31:06;;;;;;;1999.90;999.90;;;27.20;42.20;;;;;;5054849;28;20177;-43
2021/04/01 11:33:36;;;;;;;1999.90;999.90;;;26.50;44.10;;;;;;5054982;28;20200;-45
2021/04/01 11:36:12;;;;;;;1999.90;999.90;;;26.20;44.60;;;;;;5054787;28;20253;-42
2021/04/01 11:38:48;;;;;;;1999.90;999.90;;;25.80;45.60;;;;;;5054553;28;20171;-44
2021/04/01 11:41:17;;;;;;;1999.90;999.90;;;25.60;46.50;;;;;;5054778;28;20181;-46
2021/04/01 11:43:48;;;;;;;1999.90;999.90;;;25.70;46.30;;;;;;5054817;28;20218;-42
2021/04/01 11:46:20;;;;;;;1999.90;999.90;;;26.30;46.00;;;;;;5054887;28;20548;-45
2021/04/01 11:48:49;;;;;;;1999.90;999.90;;;27.10;44.30;;;;;;5054768;28;20189;-46
2021/04/01 11:51:38;;;;;;;1999.90;999.90;;;27.80;42.40;;;;;;5054628;28;20686;-40
2021/04/01 11:54:09;;;;;;;1999.90;999.90;;;28.00;42.00;;;;;;5054181;28;20189;-38
2021/04/01 11:56:37;;;;;;;1999.90;999.90;;;27.60;42.70;;;;;;5054280;28;20233;-40
2021/04/01 11:59:35;;;;;;;1999.90;999.90;;;27.30;42.20;;;;;;5054419;28;20527;-41
2021/04/01 12:02:07;;;;;;;1999.90;999.90;;;27.10;43.30;;;;;;5054367;28;20165;-39
2021/04/01 12:04:39;;;;;;;1999.90;999.90;;;27.70;42.40;;;;;;5053680;28;20513;-42
2021/04/01 12:07:08;;;;;;;1999.90;999.90;;;28.20;41.20;;;;;;5054255;28;20181;-46
2021/04/01 12:09:35;;;;;;;1999.90;999.90;;;27.90;40.80;;;;;;5053905;28;20733;-43
2021/04/01 12:12:02;;;;;;;1999.90;999.90;;;27.80;41.50;;;;;;5053848;28;20177;-41
2021/04/01 12:14:37;;;;;;;1999.90;999.90;;;27.90;42.30;;;;;;5054025;28;20182;-41
2021/04/01 12:17:07;;;;;;;1999.90;999.90;;;28.30;40.60;;;;;;5054106;28;20157;-42
2021/04/01 12:19:35;;;;;;;1999.90;999.90;;;28.60;41.00;;;;;;5053829;28;20210;-45
2021/04/01 12:22:08;;;;;;;1999.90;999.90;;;28.90;39.60;;;;;;5053909;28;20214;-42
2021/04/01 12:24:37;;;;;;;1999.90;999.90;;;29.00;39.10;;;;;;5053915;28;20280;-42
2021/04/01 12:27:04;;;;;;;1999.90;999.90;;;29.00;39.30;;;;;;5053891;28;20502;-43
2021/04/01 12:29:31;;;;;;;1999.90;999.90;;;29.10;38.90;;;;;;5053750;28;20690;-45
2021/04/01 12:31:58;;;;;;;1999.90;999.90;;;28.90;38.90;;;;;;5052919;28;20169;-39
2021/04/01 12:34:30;;;;;;;1999.90;999.90;;;29.00;39.10;;;;;;5053728;28;20168;-42
2021/04/01 12:37:03;;;;;;;1999.90;999.90;;;29.00;38.20;;;;;;5053800;28;20616;-41
2021/04/01 12:39:38;;;;;;;1999.90;999.90;;;28.90;38.90;;;;;;5053619;28;20569;-44
2021/04/01 12:42:05;;;;;;;1999.90;999.90;;;28.90;39.40;;;;;;5053421;28;20161;-42
2021/04/01 12:44:41;;;;;;;1999.90;999.90;;;29.00;39.00;;;;;;5053406;28;20180;-39
2021/04/01 12:47:09;;;;;;;1999.90;999.90;;;29.00;38.60;;;;;;5053477;28;20518;-46
2021/04/01 12:49:37;;;;;;;1999.90;999.90;;;29.00;38.80;;;;;;5053336;28;20193;-42
2021/04/01 12:52:06;;;;;;;1999.90;999.90;;;28.90;38.90;;;;;;5053482;28;20525;-43
2021/04/01 12:54:44;;;;;;;1999.90;999.90;;;29.00;38.80;;;;;;5053227;28;20260;-37
2021/04/01 12:57:15;;;;;;;1999.90;999.90;;;28.80;39.00;;;;;;5053081;28;20209;-39
2021/04/01 12:59:47;;;;;;;1999.90;999.90;;;28.60;39.40;;;;;;5053612;28;20176;-39
2021/04/01 13:02:20;;;;;;;1999.90;999.90;;;28.60;39.60;;;;;;5053259;28;20624;-46
2021/04/01 13:04:56;;;;;;;1999.90;999.90;;;28.60;39.20;;;;;;5053398;28;20166;-44
2021/04/01 13:12:27;;;;;;;1999.90;999.90;;;28.90;38.40;;;;;;5053236;28;20157;-40
2021/04/01 13:14:54;;;;;;;1999.90;999.90;;;28.90;39.00;;;;;;5052992;28;20177;-42
2021/04/01 13:17:20;;;;;;;1999.90;999.90;;;28.80;40.00;;;;;;5053073;28;20165;-42
2021/04/01 13:19:47;;;;;;;1999.90;999.90;;;28.50;40.70;;;;;;5052944;28;20215;-43
2021/04/01 13:22:21;;;;;;;1999.90;999.90;;;28.40;40.80;;;;;;5052786;28;20177;-40
2021/04/01 13:27:19;;;;;;;1999.90;999.90;;;28.10;41.40;;;;;;5052817;28;20169;-41
2021/04/01 13:29:56;;;;;;;1999.90;999.90;;;28.00;41.00;;;;;;5052270;28;20209;-41
2021/04/01 13:34:54;;;;;;;1999.90;999.90;;;27.70;42.10;;;;;;5052753;28;20201;-46
2021/04/01 13:37:31;;;;;;;1999.90;999.90;;;27.40;42.10;;;;;;5052978;28;20168;-43
2021/04/01 13:40:07;;;;;;;1999.90;999.90;;;26.90;43.00;;;;;;5052787;28;20165;-46